Terminal Aerodrome Forecast
Issued by NWS Wakefield, VA

Home | Current Version | Previous Version | Text Only | Print | Product List | Glossary On
Versions: 1 2 3 4 5 6 7 8 9 10 11 12 13 14 15 16 17 18 19
000
FTUS41 KAKQ 260533
TAFECG
TAF
KECG 260533Z 2606/2706 31005KT P6SM SKC
     FM261300 01006KT P6SM SKC
     FM261700 09007KT P6SM SCT050
     FM262000 13007KT P6SM SCT060
     FM270000 19003KT P6SM SKC=

USA.gov is the U.S. government's official web portal to all federal, state and local government web resources and services.